Time,TemperatureF,DewpointF,PressureIn,WindDirection,WindDirectionDegrees,WindSpeedMPH,WindSpeedGustMPH,Humidity,HourlyPrecipIn,Conditions,Clouds,dailyrainin,SoftwareType,DateUTC
2013-08-04 00:02:00,81.8,77.9,28.98,SSE,166,6.0,7.4,88,0.00,,FEW,0.00,WeatherDisplay:10.37,2013-08-04 05:02:00,
2013-08-04 00:07:00,81.8,77.9,28.98,SE,142,3.9,5.8,88,0.00,,FEW,0.00,WeatherDisplay:10.37,2013-08-04 05:07:00,
2013-08-04 00:12:00,81.7,77.8,28.98,ESE,118,6.6,9.2,88,0.00,,FEW,0.00,WeatherDisplay:10.37,2013-08-04 05:12:00,
2013-08-04 00:17:00,81.7,77.8,28.97,SE,145,5.0,8.4,88,0.00,,FEW,0.00,WeatherDisplay:10.37,2013-08-04 05:17:00,
2013-08-04 00:22:00,81.7,77.8,28.98,SSE,152,4.3,8.1,88,0.00,,FEW,0.00,WeatherDisplay:10.37,2013-08-04 05:22:00,
2013-08-04 00:27:00,81.7,77.8,28.98,SE,126,6.5,9.2,88,0.00,,FEW,0.00,WeatherDisplay:10.37,2013-08-04 05:27:00,
2013-08-04 00:32:00,81.7,78.1,28.98,SSE,162,5.5,8.4,89,0.00,,FEW,0.00,WeatherDisplay:10.37,2013-08-04 05:32:00,
2013-08-04 00:37:00,81.7,78.1,28.98,SSE,151,5.0,5.8,89,0.00,,FEW,0.00,WeatherDisplay:10.37,2013-08-04 05:37:00,
2013-08-04 00:42:00,81.7,78.1,28.98,SSE,151,3.3,6.3,89,0.00,,FEW,0.00,WeatherDisplay:10.37,2013-08-04 05:42:00,
2013-08-04 00:47:00,81.7,78.1,28.98,SE,132,4.5,6.9,89,0.00,,FEW,0.00,WeatherDisplay:10.37,2013-08-04 05:47:00,
2013-08-04 00:52:00,81.7,78.1,28.98,SE,144,1.5,5.2,89,0.00,,FEW,0.00,WeatherDisplay:10.37,2013-08-04 05:52:00,
2013-08-04 00:57:00,81.8,78.2,28.98,South,172,4.7,5.8,89,0.00,,FEW,0.00,WeatherDisplay:10.37,2013-08-04 05:57:00,
2013-08-04 01:02:00,81.7,78.5,28.98,SE,144,4.5,7.4,90,0.00,,FEW,0.00,WeatherDisplay:10.37,2013-08-04 06:02:00,
2013-08-04 01:07:00,81.7,78.5,28.98,South,175,6.3,8.1,90,0.00,,FEW,0.00,WeatherDisplay:10.37,2013-08-04 06:07:00,
2013-08-04 01:12:00,81.7,78.5,28.98,SSE,152,8.9,12.7,90,0.00,,FEW,0.00,WeatherDisplay:10.37,2013-08-04 06:12:00,
2013-08-04 01:17:00,81.7,78.5,28.98,South,189,3.8,5.8,90,0.00,,FEW,0.00,WeatherDisplay:10.37,2013-08-04 06:17:00,
2013-08-04 01:22:00,81.7,78.5,28.98,SE,135,6.3,7.4,90,0.00,,FEW,0.00,WeatherDisplay:10.37,2013-08-04 06:22:00,
2013-08-04 01:27:00,81.7,78.5,28.98,SE,140,4.7,5.8,90,0.00,,FEW,0.00,WeatherDisplay:10.37,2013-08-04 06:27:00,
2013-08-04 01:32:00,81.6,78.4,28.98,ESE,111,6.4,8.4,90,0.00,,FEW,0.00,WeatherDisplay:10.37,2013-08-04 06:32:00,
2013-08-04 01:37:00,81.5,78.3,28.98,SSE,155,4.7,8.1,90,0.00,,FEW,0.00,WeatherDisplay:10.37,2013-08-04 06:37:00,
2013-08-04 01:42:00,81.5,78.3,28.98,SSE,161,4.0,5.8,90,0.00,,FEW,0.00,WeatherDisplay:10.37,2013-08-04 06:42:00,
2013-08-04 01:47:00,81.4,78.2,28.98,SE,141,5.4,8.1,90,0.00,,FEW,0.00,WeatherDisplay:10.37,2013-08-04 06:47:00,
2013-08-04 01:52:00,81.4,78.2,28.98,SSE,151,3.0,5.8,90,0.00,,FEW,0.00,WeatherDisplay:10.37,2013-08-04 06:52:00,
2013-08-04 01:57:00,81.3,78.1,28.98,SE,133,7.1,7.1,90,0.00,,FEW,0.00,WeatherDisplay:10.37,2013-08-04 06:57:00,
2013-08-04 02:02:00,81.3,78.1,28.98,South,185,3.8,6.9,90,0.00,,FEW,0.00,WeatherDisplay:10.37,2013-08-04 07:02:00,
2013-08-04 02:07:00,81.3,78.1,28.98,East,101,5.7,6.9,90,0.00,,FEW,0.00,WeatherDisplay:10.37,2013-08-04 07:07:00,
2013-08-04 02:12:00,81.2,78.3,28.97,SE,140,4.2,7.4,91,0.00,,FEW,0.00,WeatherDisplay:10.37,2013-08-04 07:12:00,
2013-08-04 02:17:00,81.2,78.3,28.98,ESE,121,2.6,6.9,91,0.00,,FEW,0.00,WeatherDisplay:10.37,2013-08-04 07:17:00,
2013-08-04 02:22:00,81.2,78.3,28.98,SE,133,2.5,5.2,91,0.00,,FEW,0.00,WeatherDisplay:10.37,2013-08-04 07:22:00,
2013-08-04 02:27:00,81.2,78.3,28.97,SE,135,5.4,5.8,91,0.00,,FEW,0.00,WeatherDisplay:10.37,2013-08-04 07:27:00,
2013-08-04 02:32:00,81.1,78.2,28.97,SE,135,5.4,5.8,91,0.00,,FEW,0.00,WeatherDisplay:10.37,2013-08-04 07:32:00,
2013-08-04 02:37:00,81.1,78.2,28.97,SSE,151,3.4,5.8,91,0.00,,FEW,0.00,WeatherDisplay:10.37,2013-08-04 07:37:00,
2013-08-04 02:42:00,81.1,78.2,28.97,SSE,158,5.4,9.2,91,0.00,,FEW,0.00,WeatherDisplay:10.37,2013-08-04 07:42:00,
2013-08-04 02:47:00,81.1,78.2,28.97,SE,132,5.4,5.8,91,0.00,,FEW,0.00,WeatherDisplay:10.37,2013-08-04 07:47:00,
2013-08-04 02:52:00,81.1,78.2,28.97,SW,235,5.2,8.1,91,0.00,,FEW,0.00,WeatherDisplay:10.37,2013-08-04 07:52:00,
2013-08-04 02:57:00,81.1,78.2,28.97,South,177,0.9,5.8,91,0.00,,FEW,0.00,WeatherDisplay:10.37,2013-08-04 07:57:00,
2013-08-04 03:02:00,81.0,78.1,28.97,SE,142,5.2,5.8,91,0.00,,FEW,0.00,WeatherDisplay:10.37,2013-08-04 08:02:00,
2013-08-04 03:07:00,81.0,78.1,28.97,South,186,4.0,4.6,91,0.00,,FEW,0.00,WeatherDisplay:10.37,2013-08-04 08:07:00,
2013-08-04 03:12:00,81.0,78.1,28.97,SW,228,3.2,5.8,91,0.00,,FEW,0.00,WeatherDisplay:10.37,2013-08-04 08:12:00,
2013-08-04 03:17:00,81.0,78.1,28.97,South,173,2.5,4.6,91,0.00,,FEW,0.00,WeatherDisplay:10.37,2013-08-04 08:17:00,
2013-08-04 03:22:00,80.9,78.0,28.97,SSE,167,1.8,4.6,91,0.00,,FEW,0.00,WeatherDisplay:10.37,2013-08-04 08:22:00,
2013-08-04 03:27:00,80.9,78.0,28.97,SW,214,4.2,5.8,91,0.00,,FEW,0.00,WeatherDisplay:10.37,2013-08-04 08:27:00,
2013-08-04 03:32:00,80.9,78.0,28.97,South,169,2.4,5.8,91,0.00,,FEW,0.00,WeatherDisplay:10.37,2013-08-04 08:32:00,
2013-08-04 03:37:00,80.9,78.0,28.96,WSW,244,3.0,4.6,91,0.00,,FEW,0.00,WeatherDisplay:10.37,2013-08-04 08:37:00,
2013-08-04 03:42:00,80.9,78.0,28.96,WSW,256,3.4,5.8,91,0.00,,FEW,0.00,WeatherDisplay:10.37,2013-08-04 08:42:00,
2013-08-04 03:47:00,80.8,78.3,28.96,South,178,3.5,5.8,92,0.00,,FEW,0.00,WeatherDisplay:10.37,2013-08-04 08:47:00,
2013-08-04 03:52:00,80.8,78.3,28.96,SSE,161,1.6,3.5,92,0.00,,FEW,0.00,WeatherDisplay:10.37,2013-08-04 08:52:00,
2013-08-04 03:57:00,80.8,78.3,28.96,SSE,149,4.1,5.8,92,0.00,,FEW,0.00,WeatherDisplay:10.37,2013-08-04 08:57:00,
2013-08-04 04:02:00,80.8,78.3,28.96,SSE,148,1.0,3.5,92,0.00,,FEW,0.00,WeatherDisplay:10.37,2013-08-04 09:02:00,
2013-08-04 04:07:00,80.8,78.3,28.96,SSE,156,5.1,5.8,92,0.00,,FEW,0.00,WeatherDisplay:10.37,2013-08-04 09:07:00,
2013-08-04 04:12:00,80.8,78.3,28.96,South,171,5.6,5.8,92,0.00,,FEW,0.00,WeatherDisplay:10.37,2013-08-04 09:12:00,
2013-08-04 04:17:00,80.8,78.3,28.96,SSW,192,2.0,5.8,92,0.00,,FEW,0.00,WeatherDisplay:10.37,2013-08-04 09:17:00,
2013-08-04 04:22:00,80.8,78.3,28.96,South,188,2.2,4.6,92,0.00,,FEW,0.00,WeatherDisplay:10.37,2013-08-04 09:22:00,
2013-08-04 04:27:00,80.7,78.2,28.96,SW,222,2.2,2.3,92,0.00,,FEW,0.00,WeatherDisplay:10.37,2013-08-04 09:27:00,
2013-08-04 04:32:00,80.7,78.2,28.96,SSE,147,1.5,4.6,92,0.00,,FEW,0.00,WeatherDisplay:10.37,2013-08-04 09:32:00,
2013-08-04 04:37:00,80.7,78.2,28.96,SSE,148,0.0,2.3,92,0.00,,FEW,0.00,WeatherDisplay:10.37,2013-08-04 09:37:00,
2013-08-04 04:42:00,80.6,78.1,28.96,SE,138,2.5,4.6,92,0.00,,FEW,0.00,WeatherDisplay:10.37,2013-08-04 09:42:00,
2013-08-04 04:47:00,80.6,78.1,28.96,SSE,155,3.0,4.6,92,0.00,,FEW,0.00,WeatherDisplay:10.37,2013-08-04 09:47:00,
2013-08-04 04:52:00,80.6,78.1,28.96,South,189,1.8,2.1,92,0.00,,FEW,0.00,WeatherDisplay:10.37,2013-08-04 09:52:00,
2013-08-04 04:57:00,80.6,78.1,28.95,SW,228,1.1,6.3,92,0.00,,FEW,0.00,WeatherDisplay:10.37,2013-08-04 09:57:00,
2013-08-04 05:02:00,80.6,78.1,28.96,SSE,161,3.4,5.2,92,0.00,,FEW,0.00,WeatherDisplay:10.37,2013-08-04 10:02:00,
2013-08-04 05:07:00,80.6,78.1,28.96,SW,225,1.8,4.6,92,0.00,,FEW,0.00,WeatherDisplay:10.37,2013-08-04 10:07:00,
2013-08-04 05:12:00,80.6,78.1,28.96,SE,133,1.0,2.3,92,0.00,,FEW,0.00,WeatherDisplay:10.37,2013-08-04 10:12:00,
2013-08-04 05:17:00,80.6,78.1,28.96,South,173,2.3,4.6,92,0.00,,FEW,0.00,WeatherDisplay:10.37,2013-08-04 10:17:00,
2013-08-04 05:22:00,80.5,78.0,28.96,SW,218,3.9,4.6,92,0.00,,FEW,0.00,WeatherDisplay:10.37,2013-08-04 10:22:00,
2013-08-04 05:27:00,80.5,78.0,28.96,SSE,165,2.7,4.6,92,0.00,,FEW,0.00,WeatherDisplay:10.37,2013-08-04 10:27:00,
2013-08-04 05:32:00,80.5,78.0,28.96,SE,130,1.7,5.8,92,0.00,,FEW,0.00,WeatherDisplay:10.37,2013-08-04 10:32:00,
2013-08-04 05:37:00,80.5,78.0,28.96,SE,137,2.6,5.8,92,0.00,,FEW,0.00,WeatherDisplay:10.37,2013-08-04 10:37:00,
2013-08-04 05:42:00,80.5,78.0,28.96,SE,140,1.6,2.3,92,0.00,,FEW,0.00,WeatherDisplay:10.37,2013-08-04 10:42:00,
2013-08-04 05:47:00,80.5,78.0,28.96,South,180,3.3,3.5,92,0.00,,FEW,0.00,WeatherDisplay:10.37,2013-08-04 10:47:00,
2013-08-04 05:52:00,80.5,78.0,28.97,SSE,151,1.5,5.8,92,0.00,,FEW,0.00,WeatherDisplay:10.37,2013-08-04 10:52:00,
2013-08-04 05:57:00,80.5,78.0,28.97,South,183,0.1,2.3,92,0.00,,FEW,0.00,WeatherDisplay:10.37,2013-08-04 10:57:00,
2013-08-04 06:02:00,80.5,78.0,28.96,SW,218,2.3,4.6,92,0.00,,FEW,0.00,WeatherDisplay:10.37,2013-08-04 11:02:00,
2013-08-04 06:07:00,80.5,78.0,28.97,ESE,118,1.4,2.3,92,0.00,,FEW,0.00,WeatherDisplay:10.37,2013-08-04 11:07:00,
2013-08-04 06:12:00,80.5,78.0,28.96,SSE,154,4.9,5.8,92,0.00,,FEW,0.00,WeatherDisplay:10.37,2013-08-04 11:12:00,
2013-08-04 06:17:00,80.5,78.0,28.96,SSE,165,2.1,5.8,92,0.00,,FEW,0.00,WeatherDisplay:10.37,2013-08-04 11:17:00,
2013-08-04 06:22:00,80.5,78.0,28.96,SE,140,2.7,3.5,92,0.00,,FEW,0.00,WeatherDisplay:10.37,2013-08-04 11:22:00,
2013-08-04 06:28:00,80.5,78.0,28.96,SSE,156,3.8,5.8,92,0.00,,FEW,0.00,WeatherDisplay:10.37,2013-08-04 11:28:00,
2013-08-04 06:33:00,80.5,78.0,28.96,SSE,158,3.4,4.6,92,0.00,,FEW,0.00,WeatherDisplay:10.37,2013-08-04 11:33:00,
2013-08-04 06:38:00,80.5,78.0,28.96,ESE,123,1.4,3.5,92,0.00,,FEW,0.00,WeatherDisplay:10.37,2013-08-04 11:38:00,
2013-08-04 06:42:00,80.4,77.9,28.97,South,187,0.6,2.3,92,0.00,,FEW,0.00,WeatherDisplay:10.37,2013-08-04 11:42:00,
2013-08-04 06:48:00,80.3,77.8,28.97,West,263,2.2,4.6,92,0.00,,FEW,0.00,WeatherDisplay:10.37,2013-08-04 11:48:00,
2013-08-04 06:53:00,80.3,77.8,28.97,SSE,147,3.1,4.6,92,0.00,,FEW,0.00,WeatherDisplay:10.37,2013-08-04 11:53:00,
2013-08-04 06:58:00,80.2,77.7,28.97,WSW,237,1.0,2.1,92,0.00,,FEW,0.00,WeatherDisplay:10.37,2013-08-04 11:58:00,
2013-08-04 07:03:00,80.2,77.7,28.97,SE,131,1.8,5.8,92,0.00,,FEW,0.00,WeatherDisplay:10.37,2013-08-04 12:03:00,
2013-08-04 07:08:00,80.2,77.7,28.97,SSW,211,2.7,4.6,92,0.00,,FEW,0.00,WeatherDisplay:10.37,2013-08-04 12:08:00,
2013-08-04 07:13:00,80.3,77.8,28.97,South,187,3.0,5.8,92,0.00,,FEW,0.00,WeatherDisplay:10.37,2013-08-04 12:13:00,
2013-08-04 07:18:00,80.4,77.9,28.97,SSE,148,1.3,3.2,92,0.00,,FEW,0.00,WeatherDisplay:10.37,2013-08-04 12:18:00,
2013-08-04 07:22:00,80.5,78.0,28.97,SSE,167,5.2,8.1,92,0.00,,FEW,0.00,WeatherDisplay:10.37,2013-08-04 12:22:00,
2013-08-04 07:28:00,80.6,77.7,28.98,SSE,150,1.9,3.5,91,0.00,,FEW,0.00,WeatherDisplay:10.37,2013-08-04 12:28:00,
2013-08-04 07:33:00,80.7,77.8,28.98,South,183,3.1,5.8,91,0.00,,FEW,0.00,WeatherDisplay:10.37,2013-08-04 12:33:00,
2013-08-04 07:38:00,80.9,78.0,28.98,SE,139,3.2,4.6,91,0.00,,FEW,0.00,WeatherDisplay:10.37,2013-08-04 12:38:00,
2013-08-04 07:43:00,81.0,78.1,28.98,SSE,156,2.2,6.3,91,0.00,,FEW,0.00,WeatherDisplay:10.37,2013-08-04 12:43:00,
2013-08-04 07:48:00,81.1,77.9,28.98,South,174,3.5,5.8,90,0.00,,FEW,0.00,WeatherDisplay:10.37,2013-08-04 12:48:00,
2013-08-04 07:53:00,81.3,78.1,28.98,SSW,193,0.2,1.2,90,0.00,,FEW,0.00,WeatherDisplay:10.37,2013-08-04 12:53:00,
2013-08-04 07:58:00,81.4,78.2,28.98,SE,140,5.8,8.1,90,0.00,,FEW,0.00,WeatherDisplay:10.37,2013-08-04 12:58:00,
2013-08-04 08:03:00,81.6,78.0,28.98,SSE,161,3.1,6.9,89,0.00,,FEW,0.00,WeatherDisplay:10.37,2013-08-04 13:03:00,
2013-08-04 08:08:00,81.8,78.2,28.98,SSE,168,4.9,9.2,89,0.00,,FEW,0.00,WeatherDisplay:10.37,2013-08-04 13:08:00,
2013-08-04 08:13:00,82.1,78.5,28.98,SE,144,3.5,6.3,89,0.00,,FEW,0.00,WeatherDisplay:10.37,2013-08-04 13:13:00,
2013-08-04 08:17:00,82.5,78.6,28.99,SE,134,6.8,6.8,88,0.00,,FEW,0.00,WeatherDisplay:10.37,2013-08-04 13:17:00,
2013-08-04 08:23:00,82.8,78.9,28.99,SSE,158,5.0,5.2,88,0.00,,FEW,0.00,WeatherDisplay:10.37,2013-08-04 13:23:00,
2013-08-04 08:28:00,83.1,78.5,28.99,SSE,162,5.7,8.1,86,0.00,,FEW,0.00,WeatherDisplay:10.37,2013-08-04 13:28:00,
2013-08-04 08:33:00,83.3,78.7,28.99,SE,140,5.7,5.8,86,0.00,,FEW,0.00,WeatherDisplay:10.37,2013-08-04 13:33:00,
2013-08-04 08:38:00,83.4,78.8,28.99,SSE,149,5.0,6.9,86,0.00,,FEW,0.00,WeatherDisplay:10.37,2013-08-04 13:38:00,
2013-08-04 08:43:00,83.5,78.9,29.00,SE,124,8.2,11.5,86,0.00,,FEW,0.00,WeatherDisplay:10.37,2013-08-04 13:43:00,
2013-08-04 08:48:00,83.5,78.9,28.99,SE,142,5.1,5.8,86,0.00,,FEW,0.00,WeatherDisplay:10.37,2013-08-04 13:48:00,
2013-08-04 08:53:00,83.9,79.3,28.99,SSW,206,4.7,6.9,86,0.00,,FEW,0.00,WeatherDisplay:10.37,2013-08-04 13:53:00,
2013-08-04 08:58:00,84.1,79.1,29.00,South,180,5.4,6.9,85,0.00,,FEW,0.00,WeatherDisplay:10.37,2013-08-04 13:58:00,
2013-08-04 09:02:00,84.2,79.2,28.99,SE,140,3.3,5.8,85,0.00,,FEW,0.00,WeatherDisplay:10.37,2013-08-04 14:02:00,
2013-08-04 09:08:00,84.5,79.1,29.00,SE,144,6.1,8.1,84,0.00,,FEW,0.00,WeatherDisplay:10.37,2013-08-04 14:08:00,
2013-08-04 09:12:00,84.7,79.3,29.00,South,173,4.7,6.9,84,0.00,,FEW,0.00,WeatherDisplay:10.37,2013-08-04 14:12:00,
2013-08-04 09:18:00,84.6,79.2,29.00,SSW,205,5.0,8.1,84,0.00,,FEW,0.00,WeatherDisplay:10.37,2013-08-04 14:18:00,
2013-08-04 09:22:00,84.7,79.3,29.00,SSE,165,3.4,4.6,84,0.00,,FEW,0.00,WeatherDisplay:10.37,2013-08-04 14:22:00,
2013-08-04 09:28:00,84.5,79.1,29.00,SSE,162,5.1,6.9,84,0.00,,FEW,0.00,WeatherDisplay:10.37,2013-08-04 14:28:00,
2013-08-04 09:33:00,84.6,79.2,29.00,SSE,168,7.6,10.4,84,0.00,,FEW,0.00,WeatherDisplay:10.37,2013-08-04 14:33:00,
2013-08-04 09:38:00,84.8,79.4,29.00,SSW,212,4.2,5.8,84,0.00,,FEW,0.00,WeatherDisplay:10.37,2013-08-04 14:38:00,
2013-08-04 09:43:00,85.4,79.6,29.00,SE,140,6.4,10.4,83,0.00,,FEW,0.00,WeatherDisplay:10.37,2013-08-04 14:43:00,
2013-08-04 09:48:00,85.1,79.0,29.00,SE,138,5.6,8.1,82,0.00,,FEW,0.00,WeatherDisplay:10.37,2013-08-04 14:48:00,
2013-08-04 09:52:00,85.2,79.1,29.00,South,182,7.1,10.4,82,0.00,,FEW,0.00,WeatherDisplay:10.37,2013-08-04 14:52:00,
2013-08-04 09:58:00,85.0,78.9,29.00,SSE,152,6.2,11.5,82,0.00,,FEW,0.00,WeatherDisplay:10.37,2013-08-04 14:58:00,
2013-08-04 10:03:00,85.2,79.1,29.00,South,169,8.5,10.4,82,0.00,,FEW,0.00,WeatherDisplay:10.37,2013-08-04 15:03:00,
2013-08-04 10:08:00,85.4,78.9,29.00,SE,126,9.0,11.5,81,0.00,,FEW,0.00,WeatherDisplay:10.37,2013-08-04 15:08:00,
2013-08-04 10:13:00,85.4,78.9,29.00,SSE,149,10.7,17.3,81,0.00,,FEW,0.00,WeatherDisplay:10.37,2013-08-04 15:13:00,
2013-08-04 10:18:00,85.7,79.2,29.00,ESE,119,8.0,12.7,81,0.00,,FEW,0.00,WeatherDisplay:10.37,2013-08-04 15:18:00,
2013-08-04 10:23:00,85.9,79.4,29.00,SE,144,4.9,5.8,81,0.00,,FEW,0.00,WeatherDisplay:10.37,2013-08-04 15:23:00,
2013-08-04 10:28:00,86.3,79.4,29.00,South,170,4.8,8.1,80,0.00,,FEW,0.00,WeatherDisplay:10.37,2013-08-04 15:28:00,
2013-08-04 10:33:00,86.7,79.4,29.00,SE,144,6.5,8.4,79,0.00,,FEW,0.00,WeatherDisplay:10.37,2013-08-04 15:33:00,
2013-08-04 10:38:00,86.5,79.2,29.00,SSW,213,8.1,10.4,79,0.00,,FEW,0.00,WeatherDisplay:10.37,2013-08-04 15:38:00,
2013-08-04 10:43:00,86.4,79.1,29.00,South,175,7.6,10.4,79,0.00,,FEW,0.00,WeatherDisplay:10.37,2013-08-04 15:43:00,
2013-08-04 10:48:00,86.6,78.9,29.01,SE,130,11.6,15.0,78,0.00,,FEW,0.00,WeatherDisplay:10.37,2013-08-04 15:48:00,
2013-08-04 10:53:00,86.4,79.5,29.01,SSE,150,6.0,8.1,80,0.00,,FEW,0.00,WeatherDisplay:10.37,2013-08-04 15:53:00,
2013-08-04 10:58:00,86.9,79.2,29.01,SSW,210,6.5,8.1,78,0.00,,FEW,0.00,WeatherDisplay:10.37,2013-08-04 15:58:00,
2013-08-04 11:03:00,87.4,79.3,29.01,SE,131,8.6,11.5,77,0.00,,FEW,0.00,WeatherDisplay:10.37,2013-08-04 16:03:00,
2013-08-04 11:08:00,87.3,79.2,29.01,SSE,166,7.4,10.4,77,0.00,,FEW,0.00,WeatherDisplay:10.37,2013-08-04 16:08:00,
2013-08-04 11:13:00,87.2,79.1,29.01,South,173,6.8,12.7,77,0.00,,FEW,0.00,WeatherDisplay:10.37,2013-08-04 16:13:00,
2013-08-04 11:18:00,87.3,78.8,29.01,SW,231,5.1,9.2,76,0.00,,FEW,0.00,WeatherDisplay:10.37,2013-08-04 16:18:00,
2013-08-04 11:23:00,87.4,78.9,29.01,SE,132,4.8,6.3,76,0.00,,FEW,0.00,WeatherDisplay:10.37,2013-08-04 16:23:00,
2013-08-04 11:28:00,87.4,78.9,29.01,SSE,147,6.4,8.1,76,0.00,,FEW,0.00,WeatherDisplay:10.37,2013-08-04 16:28:00,
2013-08-04 11:33:00,87.3,78.8,29.01,South,190,4.0,8.1,76,0.00,,FEW,0.00,WeatherDisplay:10.37,2013-08-04 16:33:00,
2013-08-04 11:38:00,87.5,78.6,29.01,ESE,122,7.9,10.4,75,0.00,,FEW,0.00,WeatherDisplay:10.37,2013-08-04 16:38:00,
2013-08-04 11:43:00,87.3,78.8,29.01,SSW,211,6.3,11.5,76,0.00,,FEW,0.00,WeatherDisplay:10.37,2013-08-04 16:43:00,
2013-08-04 11:48:00,87.1,79.0,29.01,ESE,119,6.2,9.2,77,0.00,,FEW,0.00,WeatherDisplay:10.37,2013-08-04 16:48:00,
2013-08-04 11:53:00,87.5,78.6,29.01,South,182,7.5,11.5,75,0.00,,FEW,0.00,WeatherDisplay:10.37,2013-08-04 16:53:00,
2013-08-04 11:58:00,87.5,79.0,29.01,SSE,156,6.5,10.5,76,0.00,,FEW,0.00,WeatherDisplay:10.37,2013-08-04 16:58:00,
2013-08-04 12:03:00,87.6,78.7,29.01,SE,135,5.8,8.1,75,0.00,,FEW,0.00,WeatherDisplay:10.37,2013-08-04 17:03:00,
2013-08-04 12:08:00,87.9,78.6,29.01,SSW,207,5.6,11.5,74,0.00,,FEW,0.00,WeatherDisplay:10.37,2013-08-04 17:08:00,
2013-08-04 12:13:00,88.1,78.3,29.01,South,178,6.9,9.2,73,0.00,,FEW,0.00,WeatherDisplay:10.37,2013-08-04 17:13:00,
2013-08-04 12:18:00,87.9,77.7,29.01,SE,139,11.2,12.7,72,0.00,,FEW,0.00,WeatherDisplay:10.37,2013-08-04 17:18:00,
2013-08-04 12:23:00,87.6,77.9,29.01,SE,140,9.3,11.5,73,0.00,,FEW,0.00,WeatherDisplay:10.37,2013-08-04 17:23:00,
2013-08-04 12:28:00,88.0,78.3,29.01,SE,132,4.4,6.9,73,0.00,,FEW,0.00,WeatherDisplay:10.37,2013-08-04 17:28:00,
2013-08-04 12:33:00,87.9,78.2,29.01,South,175,8.7,11.5,73,0.00,,FEW,0.00,WeatherDisplay:10.37,2013-08-04 17:33:00,
2013-08-04 12:38:00,87.9,78.6,29.01,SE,130,6.4,9.2,74,0.00,,FEW,0.00,WeatherDisplay:10.37,2013-08-04 17:38:00,
2013-08-04 12:43:00,87.7,78.4,29.01,South,186,3.9,5.8,74,0.00,,FEW,0.00,WeatherDisplay:10.37,2013-08-04 17:43:00,
2013-08-04 12:48:00,88.1,78.8,29.01,SW,218,9.1,10.5,74,0.00,,FEW,0.00,WeatherDisplay:10.37,2013-08-04 17:48:00,
2013-08-04 12:53:00,87.8,78.5,29.00,SE,140,10.1,13.8,74,0.00,,FEW,0.00,WeatherDisplay:10.37,2013-08-04 17:53:00,
2013-08-04 12:58:00,87.7,78.4,29.00,East,92,7.1,8.4,74,0.00,,FEW,0.00,WeatherDisplay:10.37,2013-08-04 17:58:00,
2013-08-04 13:03:00,88.2,79.3,29.00,SE,126,2.0,5.8,75,0.00,,FEW,0.00,WeatherDisplay:10.37,2013-08-04 18:03:00,
2013-08-04 13:08:00,89.0,78.8,29.00,SSE,156,10.3,13.8,72,0.00,,FEW,0.00,WeatherDisplay:10.37,2013-08-04 18:08:00,
2013-08-04 13:13:00,88.9,79.1,29.00,SSW,211,6.3,10.4,73,0.00,,FEW,0.00,WeatherDisplay:10.37,2013-08-04 18:13:00,
2013-08-04 13:18:00,89.1,79.3,29.00,SE,126,8.1,11.5,73,0.00,,FEW,0.00,WeatherDisplay:10.37,2013-08-04 18:18:00,
2013-08-04 13:23:00,88.6,78.8,29.00,SSE,152,8.9,16.8,73,0.00,,FEW,0.00,WeatherDisplay:10.37,2013-08-04 18:23:00,
2013-08-04 13:28:00,88.0,78.7,29.00,SSE,147,9.7,12.7,74,0.00,,FEW,0.00,WeatherDisplay:10.37,2013-08-04 18:28:00,
2013-08-04 13:33:00,88.1,79.2,28.99,SE,144,4.5,6.9,75,0.00,,FEW,0.00,WeatherDisplay:10.37,2013-08-04 18:33:00,
2013-08-04 13:38:00,88.8,79.0,29.00,SE,126,7.5,9.2,73,0.00,,FEW,0.00,WeatherDisplay:10.37,2013-08-04 18:38:00,
2013-08-04 13:43:00,87.8,78.1,28.99,SSE,152,10.4,11.5,73,0.00,,FEW,0.00,WeatherDisplay:10.37,2013-08-04 18:43:00,
2013-08-04 13:48:00,87.8,78.5,28.99,SE,134,8.9,13.8,74,0.00,,FEW,0.00,WeatherDisplay:10.37,2013-08-04 18:48:00,
2013-08-04 13:53:00,87.9,78.6,28.99,South,174,9.7,12.7,74,0.00,,FEW,0.00,WeatherDisplay:10.37,2013-08-04 18:53:00,
2013-08-04 13:58:00,88.3,78.5,28.99,SSE,156,9.1,13.7,73,0.00,,FEW,0.00,WeatherDisplay:10.37,2013-08-04 18:58:00,
2013-08-04 14:03:00,88.7,78.9,28.98,SE,142,7.4,13.8,73,0.00,,FEW,0.00,WeatherDisplay:10.37,2013-08-04 19:03:00,
2013-08-04 14:08:00,88.4,79.1,28.98,SE,142,4.2,10.4,74,0.00,,FEW,0.00,WeatherDisplay:10.37,2013-08-04 19:08:00,
2013-08-04 14:13:00,88.8,79.4,28.98,East,100,6.1,10.4,74,0.00,,FEW,0.00,WeatherDisplay:10.37,2013-08-04 19:13:00,
2013-08-04 14:18:00,88.7,78.9,28.98,SE,130,8.3,13.8,73,0.00,,FEW,0.00,WeatherDisplay:10.37,2013-08-04 19:18:00,
2013-08-04 14:23:00,88.1,78.3,28.98,SE,126,9.0,15.0,73,0.00,,FEW,0.00,WeatherDisplay:10.37,2013-08-04 19:23:00,
2013-08-04 14:28:00,88.0,78.7,28.98,SE,137,9.8,18.4,74,0.00,,FEW,0.00,WeatherDisplay:10.37,2013-08-04 19:28:00,
2013-08-04 14:33:00,88.1,77.9,28.98,SSE,156,10.5,11.5,72,0.00,,FEW,0.00,WeatherDisplay:10.37,2013-08-04 19:33:00,
2013-08-04 14:38:00,88.0,77.8,28.98,SSE,165,7.1,9.2,72,0.00,,FEW,0.00,WeatherDisplay:10.37,2013-08-04 19:38:00,
2013-08-04 14:43:00,87.6,77.0,28.98,ENE,78,9.7,13.8,71,0.00,,FEW,0.00,WeatherDisplay:10.37,2013-08-04 19:43:00,
2013-08-04 14:48:00,87.9,78.2,28.98,SE,132,7.0,8.1,73,0.00,,FEW,0.00,WeatherDisplay:10.37,2013-08-04 19:48:00,
2013-08-04 14:53:00,88.8,78.2,28.97,ESE,111,9.0,13.8,71,0.00,,FEW,0.00,WeatherDisplay:10.37,2013-08-04 19:53:00,
2013-08-04 14:58:00,88.2,77.2,28.97,SE,126,7.8,17.3,70,0.00,,FEW,0.00,WeatherDisplay:10.37,2013-08-04 19:58:00,
2013-08-04 15:03:00,88.6,77.6,28.98,SE,128,10.3,17.3,70,0.00,,FEW,0.00,WeatherDisplay:10.37,2013-08-04 20:03:00,
2013-08-04 15:08:00,88.7,77.7,28.97,SE,143,8.0,8.4,70,0.00,,FEW,0.00,WeatherDisplay:10.37,2013-08-04 20:08:00,
2013-08-04 15:13:00,88.6,76.7,28.97,ESE,111,11.0,18.4,68,0.00,,FEW,0.00,WeatherDisplay:10.37,2013-08-04 20:13:00,
2013-08-04 15:18:00,88.1,77.5,28.97,SSE,148,10.6,13.8,71,0.00,,FEW,0.00,WeatherDisplay:10.37,2013-08-04 20:18:00,
2013-08-04 15:23:00,88.0,76.5,28.96,SSW,192,6.7,11.5,69,0.00,,FEW,0.00,WeatherDisplay:10.37,2013-08-04 20:23:00,
2013-08-04 15:28:00,88.0,78.3,28.97,ESE,123,11.5,18.4,73,0.00,,FEW,0.00,WeatherDisplay:10.37,2013-08-04 20:28:00,
2013-08-04 15:33:00,88.0,77.8,28.96,SSE,161,10.4,15.0,72,0.00,,FEW,0.00,WeatherDisplay:10.37,2013-08-04 20:33:00,
2013-08-04 15:38:00,88.6,78.8,28.96,South,173,5.9,11.5,73,0.00,,FEW,0.00,WeatherDisplay:10.37,2013-08-04 20:38:00,
2013-08-04 15:43:00,88.5,78.3,28.96,SE,128,5.9,13.8,72,0.00,,FEW,0.00,WeatherDisplay:10.37,2013-08-04 20:43:00,
2013-08-04 15:48:00,88.3,78.5,28.96,SSE,160,7.7,15.0,73,0.00,,FEW,0.00,WeatherDisplay:10.37,2013-08-04 20:48:00,
2013-08-04 15:53:00,88.1,76.6,28.96,SE,128,11.4,17.9,69,0.00,,FEW,0.00,WeatherDisplay:10.37,2013-08-04 20:53:00,
2013-08-04 15:58:00,87.8,76.8,28.96,SSW,207,4.9,8.1,70,0.00,,FEW,0.00,WeatherDisplay:10.37,2013-08-04 20:58:00,
2013-08-04 16:03:00,88.3,77.3,28.96,NNE,33,7.9,12.7,70,0.00,,FEW,0.00,WeatherDisplay:10.37,2013-08-04 21:03:00,
2013-08-04 16:08:00,88.6,77.1,28.96,South,182,9.5,13.8,69,0.00,,FEW,0.00,WeatherDisplay:10.37,2013-08-04 21:08:00,
2013-08-04 16:13:00,88.1,76.6,28.96,South,170,10.5,15.0,69,0.00,,FEW,0.00,WeatherDisplay:10.37,2013-08-04 21:13:00,
2013-08-04 16:18:00,88.5,77.5,28.96,SSE,147,10.4,12.7,70,0.00,,FEW,0.00,WeatherDisplay:10.37,2013-08-04 21:18:00,
2013-08-04 16:23:00,87.9,77.7,28.95,SE,140,4.9,13.8,72,0.00,,FEW,0.00,WeatherDisplay:10.37,2013-08-04 21:23:00,
2013-08-04 16:28:00,88.3,78.1,28.95,SSE,152,5.6,8.4,72,0.00,,FEW,0.00,WeatherDisplay:10.37,2013-08-04 21:28:00,
2013-08-04 16:33:00,88.2,77.6,28.95,SSE,154,6.9,9.2,71,0.00,,FEW,0.00,WeatherDisplay:10.37,2013-08-04 21:33:00,
2013-08-04 16:38:00,88.1,77.9,28.95,SSE,167,10.1,18.4,72,0.00,,FEW,0.00,WeatherDisplay:10.37,2013-08-04 21:38:00,
2013-08-04 16:43:00,87.5,77.8,28.95,SSE,151,8.5,15.0,73,0.00,,FEW,0.00,WeatherDisplay:10.37,2013-08-04 21:43:00,
2013-08-04 16:48:00,87.9,78.2,28.95,SSE,148,10.0,16.8,73,0.00,,FEW,0.00,WeatherDisplay:10.37,2013-08-04 21:48:00,
2013-08-04 16:49:00,87.8,78.1,28.95,SE,128,11.7,17.3,73,0.00,,FEW,0.00,WeatherDisplay:10.37,2013-08-04 21:49:00,
2013-08-04 16:54:00,87.3,77.6,28.95,SSE,158,10.4,16.1,73,0.00,,FEW,0.00,WeatherDisplay:10.37,2013-08-04 21:54:00,
2013-08-04 16:59:00,87.2,77.1,28.95,SE,137,11.9,14.7,72,0.00,,FEW,0.00,WeatherDisplay:10.37,2013-08-04 21:59:00,
2013-08-04 17:04:00,86.7,76.2,28.95,SSE,166,14.5,18.4,71,0.00,,FEW,0.00,WeatherDisplay:10.37,2013-08-04 22:04:00,
2013-08-04 17:09:00,86.7,76.6,28.95,SE,126,9.9,15.0,72,0.00,,FEW,0.00,WeatherDisplay:10.37,2013-08-04 22:09:00,
2013-08-04 17:14:00,86.7,77.4,28.94,East,95,9.3,12.6,74,0.00,,FEW,0.00,WeatherDisplay:10.37,2013-08-04 22:14:00,
2013-08-04 17:19:00,86.8,76.7,28.94,SE,142,6.6,12.7,72,0.00,,FEW,0.00,WeatherDisplay:10.37,2013-08-04 22:19:00,
2013-08-04 17:24:00,86.9,76.4,28.94,SE,144,13.2,17.3,71,0.00,,FEW,0.00,WeatherDisplay:10.37,2013-08-04 22:24:00,
2013-08-04 17:29:00,86.6,75.6,28.94,ESE,123,13.5,17.3,70,0.00,,FEW,0.00,WeatherDisplay:10.37,2013-08-04 22:29:00,
2013-08-04 17:34:00,86.5,76.4,28.94,South,180,6.5,11.5,72,0.00,,FEW,0.00,WeatherDisplay:10.37,2013-08-04 22:34:00,
2013-08-04 17:39:00,86.6,76.1,28.94,SE,138,10.8,15.0,71,0.00,,FEW,0.00,WeatherDisplay:10.37,2013-08-04 22:39:00,
2013-08-04 17:44:00,86.8,76.3,28.94,ESE,114,9.6,15.0,71,0.00,,FEW,0.00,WeatherDisplay:10.37,2013-08-04 22:44:00,
2013-08-04 17:49:00,87.0,76.5,28.94,SSE,166,7.4,15.0,71,0.00,,FEW,0.00,WeatherDisplay:10.37,2013-08-04 22:49:00,
2013-08-04 17:54:00,86.8,75.8,28.94,SSE,163,11.0,18.4,70,0.00,,FEW,0.00,WeatherDisplay:10.37,2013-08-04 22:54:00,
2013-08-04 17:59:00,86.4,76.3,28.94,SE,141,12.0,17.3,72,0.00,,FEW,0.00,WeatherDisplay:10.37,2013-08-04 22:59:00,
2013-08-04 18:04:00,86.2,76.5,28.94,South,183,9.3,12.7,73,0.00,,FEW,0.00,WeatherDisplay:10.37,2013-08-04 23:04:00,
2013-08-04 18:09:00,86.1,76.4,28.94,South,182,6.5,13.8,73,0.00,,FEW,0.00,WeatherDisplay:10.37,2013-08-04 23:09:00,
2013-08-04 18:14:00,86.1,76.4,28.94,South,173,9.8,16.1,73,0.00,,FEW,0.00,WeatherDisplay:10.37,2013-08-04 23:14:00,
2013-08-04 18:19:00,85.8,76.1,28.94,SSW,196,10.9,16.1,73,0.00,,FEW,0.00,WeatherDisplay:10.37,2013-08-04 23:19:00,
2013-08-04 18:24:00,85.7,76.5,28.94,South,175,10.1,13.8,74,0.00,,FEW,0.00,WeatherDisplay:10.37,2013-08-04 23:24:00,
2013-08-04 18:29:00,85.8,76.5,28.93,SE,133,9.1,12.7,74,0.00,,FEW,0.00,WeatherDisplay:10.37,2013-08-04 23:29:00,
2013-08-04 18:34:00,85.8,76.1,28.93,SE,137,5.5,12.7,73,0.00,,FEW,0.00,WeatherDisplay:10.37,2013-08-04 23:34:00,
2013-08-04 18:39:00,85.7,75.6,28.94,SE,130,13.1,18.4,72,0.00,,FEW,0.00,WeatherDisplay:10.37,2013-08-04 23:39:00,
2013-08-04 18:44:00,85.5,75.9,28.93,SE,140,13.5,18.4,73,0.00,,FEW,0.00,WeatherDisplay:10.37,2013-08-04 23:44:00,
2013-08-04 18:49:00,85.5,75.9,28.93,SE,143,12.3,15.0,73,0.00,,FEW,0.00,WeatherDisplay:10.37,2013-08-04 23:49:00,
2013-08-04 18:54:00,85.4,76.2,28.93,SE,144,5.2,12.7,74,0.00,,FEW,0.00,WeatherDisplay:10.37,2013-08-04 23:54:00,
2013-08-04 18:59:00,85.4,76.2,28.93,SE,141,9.0,15.0,74,0.00,,FEW,0.00,WeatherDisplay:10.37,2013-08-04 23:59:00,
2013-08-04 19:04:00,85.1,76.3,28.93,SSW,204,5.8,7.4,75,0.00,,FEW,0.00,WeatherDisplay:10.37,2013-08-05 00:04:00,
2013-08-04 19:09:00,85.0,76.6,28.93,South,185,9.2,12.7,76,0.00,,FEW,0.00,WeatherDisplay:10.37,2013-08-05 00:09:00,
2013-08-04 19:14:00,84.6,76.2,28.93,SSE,151,6.8,12.7,76,0.00,,FEW,0.00,WeatherDisplay:10.37,2013-08-05 00:14:00,
2013-08-04 19:19:00,84.4,76.4,28.93,SE,130,9.7,16.1,77,0.00,,FEW,0.00,WeatherDisplay:10.37,2013-08-05 00:19:00,
2013-08-04 19:24:00,84.5,76.9,28.93,SE,135,7.5,11.5,78,0.00,,FEW,0.00,WeatherDisplay:10.37,2013-08-05 00:24:00,
2013-08-04 19:29:00,84.4,76.8,28.93,SE,143,10.8,15.0,78,0.00,,FEW,0.00,WeatherDisplay:10.37,2013-08-05 00:29:00,
2013-08-04 19:34:00,84.1,76.5,28.93,SSE,148,11.8,18.4,78,0.00,,FEW,0.00,WeatherDisplay:10.37,2013-08-05 00:34:00,
2013-08-04 19:39:00,84.1,76.9,28.93,ESE,118,5.6,7.4,79,0.00,,FEW,0.00,WeatherDisplay:10.37,2013-08-05 00:39:00,
2013-08-04 19:44:00,83.9,76.7,28.93,SSW,200,6.6,10.4,79,0.00,,FEW,0.00,WeatherDisplay:10.37,2013-08-05 00:44:00,
2013-08-04 19:49:00,83.6,76.8,28.93,SE,133,7.5,12.7,80,0.00,,FEW,0.00,WeatherDisplay:10.37,2013-08-05 00:49:00,
2013-08-04 19:54:00,83.5,76.7,28.94,SSE,163,3.7,5.8,80,0.00,,FEW,0.00,WeatherDisplay:10.37,2013-08-05 00:54:00,
2013-08-04 19:59:00,83.2,76.4,28.93,SE,145,9.8,15.0,80,0.00,,FEW,0.00,WeatherDisplay:10.37,2013-08-05 00:59:00,
2013-08-04 20:04:00,83.0,76.6,28.94,South,175,9.3,11.5,81,0.00,,FEW,0.00,WeatherDisplay:10.37,2013-08-05 01:04:00,
2013-08-04 20:09:00,82.7,76.6,28.94,SE,137,13.3,18.4,82,0.00,,FEW,0.00,WeatherDisplay:10.37,2013-08-05 01:09:00,
2013-08-04 20:14:00,82.6,76.9,28.94,SSE,163,8.2,12.6,83,0.00,,FEW,0.00,WeatherDisplay:10.37,2013-08-05 01:14:00,
2013-08-04 20:19:00,82.5,76.8,28.94,SSE,156,4.0,8.1,83,0.00,,FEW,0.00,WeatherDisplay:10.37,2013-08-05 01:19:00,
2013-08-04 20:24:00,82.3,76.6,28.94,SE,141,7.6,9.2,83,0.00,,FEW,0.00,WeatherDisplay:10.37,2013-08-05 01:24:00,
2013-08-04 20:29:00,82.3,77.0,28.94,NNE,25,14.8,15.0,84,0.00,,FEW,0.00,WeatherDisplay:10.37,2013-08-05 01:29:00,
2013-08-04 20:34:00,82.2,76.9,28.94,SSE,159,11.3,13.8,84,0.00,,FEW,0.00,WeatherDisplay:10.37,2013-08-05 01:34:00,
2013-08-04 20:39:00,82.1,76.8,28.94,ESE,114,8.5,12.7,84,0.00,,FEW,0.00,WeatherDisplay:10.37,2013-08-05 01:39:00,
2013-08-04 20:44:00,82.1,76.8,28.95,SSE,156,8.3,9.2,84,0.00,,FEW,0.00,WeatherDisplay:10.37,2013-08-05 01:44:00,
2013-08-04 20:49:00,82.0,77.0,28.94,SE,130,6.5,10.4,85,0.00,,FEW,0.00,WeatherDisplay:10.37,2013-08-05 01:49:00,
2013-08-04 20:54:00,81.9,76.9,28.95,ESE,109,8.0,11.5,85,0.00,,FEW,0.00,WeatherDisplay:10.37,2013-08-05 01:54:00,
2013-08-04 20:59:00,81.9,76.9,28.94,WSW,241,4.7,9.2,85,0.00,,FEW,0.00,WeatherDisplay:10.37,2013-08-05 01:59:00,
2013-08-04 21:04:00,81.9,76.9,28.95,SE,135,7.3,9.2,85,0.00,,FEW,0.00,WeatherDisplay:10.37,2013-08-05 02:04:00,
2013-08-04 21:09:00,81.9,76.9,28.95,SE,124,9.3,12.7,85,0.00,,FEW,0.00,WeatherDisplay:10.37,2013-08-05 02:09:00,
2013-08-04 21:14:00,81.9,76.9,28.95,SSW,211,9.1,12.7,85,0.00,,FEW,0.00,WeatherDisplay:10.37,2013-08-05 02:14:00,
2013-08-04 21:19:00,81.9,76.9,28.96,SE,145,6.8,10.5,85,0.00,,FEW,0.00,WeatherDisplay:10.37,2013-08-05 02:19:00,
2013-08-04 21:24:00,81.8,76.8,28.95,ESE,119,8.3,10.4,85,0.00,,FEW,0.00,WeatherDisplay:10.37,2013-08-05 02:24:00,
2013-08-04 21:29:00,81.7,76.7,28.95,East,99,10.9,20.7,85,0.00,,FEW,0.00,WeatherDisplay:10.37,2013-08-05 02:29:00,
2013-08-04 21:34:00,81.7,76.7,28.95,East,98,8.3,9.5,85,0.00,,FEW,0.00,WeatherDisplay:10.37,2013-08-05 02:34:00,
2013-08-04 21:39:00,81.7,76.7,28.95,ENE,71,7.1,7.1,85,0.00,,FEW,0.00,WeatherDisplay:10.37,2013-08-05 02:39:00,
2013-08-04 21:44:00,81.7,77.1,28.95,South,170,6.9,10.4,86,0.00,,FEW,0.00,WeatherDisplay:10.37,2013-08-05 02:44:00,
2013-08-04 21:49:00,81.6,77.0,28.96,SSE,168,5.2,5.8,86,0.00,,FEW,0.00,WeatherDisplay:10.37,2013-08-05 02:49:00,
2013-08-04 21:54:00,81.5,76.9,28.96,SSE,147,4.9,6.9,86,0.00,,FEW,0.00,WeatherDisplay:10.37,2013-08-05 02:54:00,
2013-08-04 21:59:00,81.5,76.9,28.96,ESE,121,4.4,9.2,86,0.00,,FEW,0.00,WeatherDisplay:10.37,2013-08-05 02:59:00,
2013-08-04 22:04:00,81.4,76.8,28.97,SSE,148,8.8,12.7,86,0.00,,FEW,0.00,WeatherDisplay:10.37,2013-08-05 03:04:00,
2013-08-04 22:09:00,81.5,76.9,28.97,SSW,206,6.6,10.4,86,0.00,,FEW,0.00,WeatherDisplay:10.37,2013-08-05 03:09:00,
2013-08-04 22:14:00,81.5,76.9,28.97,SE,132,3.5,6.9,86,0.00,,FEW,0.00,WeatherDisplay:10.37,2013-08-05 03:14:00,
2013-08-04 22:19:00,81.5,76.9,28.97,SSE,167,3.0,8.1,86,0.00,,FEW,0.00,WeatherDisplay:10.37,2013-08-05 03:19:00,
2013-08-04 22:24:00,81.5,76.9,28.97,ESE,111,9.0,11.5,86,0.00,,FEW,0.00,WeatherDisplay:10.37,2013-08-05 03:24:00,
2013-08-04 22:29:00,81.5,76.9,28.97,SSE,151,6.5,11.5,86,0.00,,FEW,0.00,WeatherDisplay:10.37,2013-08-05 03:29:00,
2013-08-04 22:34:00,81.5,76.9,28.97,South,185,5.0,5.8,86,0.00,,FEW,0.00,WeatherDisplay:10.37,2013-08-05 03:34:00,
2013-08-04 22:39:00,81.5,76.9,28.97,SW,235,7.4,11.5,86,0.00,,FEW,0.00,WeatherDisplay:10.37,2013-08-05 03:39:00,
2013-08-04 22:44:00,81.4,76.8,28.98,South,180,7.2,8.1,86,0.00,,FEW,0.00,WeatherDisplay:10.37,2013-08-05 03:44:00,
2013-08-04 22:49:00,81.4,77.2,28.98,South,180,7.0,11.5,87,0.00,,FEW,0.00,WeatherDisplay:10.37,2013-08-05 03:49:00,
2013-08-04 22:54:00,81.3,77.1,28.97,SSE,161,6.4,6.9,87,0.00,,FEW,0.00,WeatherDisplay:10.37,2013-08-05 03:54:00,
2013-08-04 22:59:00,81.3,77.1,28.98,SSE,157,7.9,10.5,87,0.00,,FEW,0.00,WeatherDisplay:10.37,2013-08-05 03:59:00,
2013-08-04 23:01:00,81.3,77.1,28.98,SE,130,10.2,12.7,87,0.00,,FEW,0.00,WeatherDisplay:10.37,2013-08-05 04:01:00,
2013-08-04 23:02:00,81.3,77.1,28.98,SW,217,5.5,11.5,87,0.00,,FEW,0.00,WeatherDisplay:10.37,2013-08-05 04:02:00,
2013-08-04 23:07:00,81.3,77.1,28.98,East,92,3.5,10.4,87,0.00,,FEW,0.00,WeatherDisplay:10.37,2013-08-05 04:07:00,
2013-08-04 23:12:00,81.3,77.4,28.98,SE,132,4.7,8.1,88,0.00,,FEW,0.00,WeatherDisplay:10.37,2013-08-05 04:12:00,
2013-08-04 23:17:00,81.3,77.4,28.98,South,180,8.6,9.2,88,0.00,,FEW,0.00,WeatherDisplay:10.37,2013-08-05 04:17:00,
2013-08-04 23:22:00,81.2,77.3,28.98,SE,146,4.8,6.9,88,0.00,,FEW,0.00,WeatherDisplay:10.37,2013-08-05 04:22:00,
2013-08-04 23:27:00,81.2,77.0,28.98,SSE,154,6.7,8.4,87,0.00,,FEW,0.00,WeatherDisplay:10.37,2013-08-05 04:27:00,
2013-08-04 23:32:00,81.2,77.3,28.98,SE,136,5.6,9.2,88,0.00,,FEW,0.00,WeatherDisplay:10.37,2013-08-05 04:32:00,
2013-08-04 23:37:00,81.2,77.3,28.98,SSE,168,5.5,9.2,88,0.00,,FEW,0.00,WeatherDisplay:10.37,2013-08-05 04:37:00,
2013-08-04 23:42:00,81.2,77.3,28.99,SE,138,6.4,7.4,88,0.00,,FEW,0.00,WeatherDisplay:10.37,2013-08-05 04:42:00,
2013-08-04 23:47:00,81.1,77.2,28.99,SSE,149,9.4,11.5,88,0.00,,FEW,0.00,WeatherDisplay:10.37,2013-08-05 04:47:00,
2013-08-04 23:52:00,81.1,77.2,28.99,SSW,206,6.2,9.2,88,0.00,,FEW,0.00,WeatherDisplay:10.37,2013-08-05 04:52:00,
2013-08-04 23:57:00,81.1,77.2,28.98,SSE,149,9.4,9.4,88,0.00,,FEW,0.00,WeatherDisplay:10.37,2013-08-05 04:57:00,